Time;durP1;ratioP1;P1;durP2;ratioP2;P2;SDS_P1;SDS_P2;PMS_P1;PMS_P2;Temp;Humidity;BMP_temperature;BMP_pressure;BME280_temperature;BME280_humidity;BME280_pressure;Samples;Min_cycle;Max_cycle;Signal;HPM_P1;HPM_P2
2022/01/22 00:00:46;;;;;;;21.43;12.80;;;4.60;99.90;;;;;;5050717;28;20680;-66
2022/01/22 00:03:13;;;;;;;13.87;12.57;;;4.60;99.90;;;;;;5068323;28;20178;-66
2022/01/22 00:05:38;;;;;;;14.67;13.17;;;4.60;99.90;;;;;;5051018;28;20170;-66
2022/01/22 00:08:04;;;;;;;15.77;14.27;;;4.60;99.90;;;;;;5070612;28;20174;-66
2022/01/22 00:10:31;;;;;;;15.20;13.87;;;4.70;99.90;;;;;;5071267;28;20174;-66
2022/01/22 00:15:28;;;;;;;23.50;13.20;;;4.70;99.90;;;;;;5071218;28;20163;-66
2022/01/22 00:17:54;;;;;;;14.80;12.97;;;4.70;99.90;;;;;;5065588;28;20243;-66
2022/01/22 00:20:26;;;;;;;18.10;13.20;;;4.70;99.90;;;;;;5069545;28;20327;-66
2022/01/22 00:22:53;;;;;;;11.83;10.70;;;4.70;99.90;;;;;;5013262;28;20183;-66
2022/01/22 00:25:21;;;;;;;16.47;13.20;;;4.70;99.90;;;;;;5046961;28;20272;-66
2022/01/22 00:27:48;;;;;;;15.33;12.13;;;4.70;99.90;;;;;;5072123;28;20201;-66
2022/01/22 00:30:24;;;;;;;14.63;13.13;;;4.70;99.90;;;;;;5058935;28;20171;-66
2022/01/22 00:32:51;;;;;;;15.73;12.50;;;4.70;99.90;;;;;;5061275;28;20202;-66
2022/01/22 00:35:18;;;;;;;16.17;13.13;;;4.80;99.90;;;;;;5055056;28;20182;-66
2022/01/22 00:37:47;;;;;;;15.83;11.93;;;4.70;99.90;;;;;;5074952;28;20186;-66
2022/01/22 00:40:14;;;;;;;23.83;13.70;;;4.80;99.90;;;;;;5074917;28;20166;-66
2022/01/22 00:42:44;;;;;;;12.93;11.67;;;4.80;99.90;;;;;;5064550;28;20536;-66
2022/01/22 00:45:10;;;;;;;15.93;14.47;;;4.80;99.90;;;;;;5017312;28;20234;-67
2022/01/22 00:47:36;;;;;;;20.90;14.90;;;4.80;99.90;;;;;;5061322;28;20272;-66
2022/01/22 00:50:04;;;;;;;14.87;13.37;;;4.80;99.90;;;;;;5054440;28;20182;-66
2022/01/22 00:52:29;;;;;;;19.73;15.83;;;4.70;99.90;;;;;;5071822;28;20198;-66
2022/01/22 00:54:55;;;;;;;20.53;16.63;;;4.80;99.90;;;;;;5074640;28;20166;-65
2022/01/22 00:57:20;;;;;;;19.07;17.00;;;4.70;99.90;;;;;;5061853;28;20628;-65
2022/01/22 00:59:46;;;;;;;17.17;15.33;;;4.70;99.90;;;;;;5058626;28;20182;-66
2022/01/22 01:02:12;;;;;;;19.70;17.57;;;4.70;99.90;;;;;;5056290;28;20631;-66
2022/01/22 01:04:37;;;;;;;18.87;16.20;;;4.70;99.90;;;;;;5068993;28;20281;-65
2022/01/22 01:07:05;;;;;;;20.43;17.57;;;4.70;99.90;;;;;;5073772;28;20217;-65
2022/01/22 01:09:31;;;;;;;24.93;19.37;;;4.70;99.90;;;;;;5054294;28;20203;-66
2022/01/22 01:12:02;;;;;;;19.73;17.67;;;4.70;99.90;;;;;;5057365;28;20194;-67
2022/01/22 01:14:38;;;;;;;18.97;17.00;;;4.70;99.90;;;;;;5054706;28;20555;-66
2022/01/22 01:35:55;;;;;;;19.97;17.30;;;4.40;99.90;;;;;;5055742;28;20667;-67
2022/01/22 01:38:23;;;;;;;22.27;17.20;;;4.30;99.90;;;;;;5065046;28;20185;-66
2022/01/22 01:40:58;;;;;;;22.33;16.50;;;4.30;99.90;;;;;;5054654;28;20171;-66
2022/01/22 01:43:30;;;;;;;26.80;17.63;;;4.30;99.90;;;;;;5053746;28;20178;-65
2022/01/22 01:45:56;;;;;;;25.73;17.63;;;4.20;99.90;;;;;;5068618;28;20197;-65
2022/01/22 01:48:26;;;;;;;26.33;17.47;;;4.20;99.90;;;;;;5073602;28;20171;-66
2022/01/22 01:50:52;;;;;;;26.10;18.77;;;4.20;99.90;;;;;;5041981;28;20186;-65
2022/01/22 01:53:42;;;;;;;26.53;18.27;;;4.20;99.90;;;;;;5063455;28;20207;-66
2022/01/22 01:57:25;;;;;;;21.37;17.73;;;4.20;99.90;;;;;;5053524;28;20686;-66
2022/01/22 01:58:54;;;;;;;23.90;18.93;;;4.20;99.90;;;;;;5056420;28;20277;-65
2022/01/22 02:01:20;;;;;;;23.83;18.87;;;4.20;99.90;;;;;;5055373;28;20660;-66
2022/01/22 02:03:45;;;;;;;30.23;17.87;;;4.20;99.90;;;;;;5053230;28;20665;-65
2022/01/22 02:06:11;;;;;;;22.57;18.50;;;4.20;99.90;;;;;;5069591;28;20555;-65
2022/01/22 02:08:36;;;;;;;19.93;16.97;;;4.20;99.90;;;;;;5037526;28;20179;-66
2022/01/22 02:11:04;;;;;;;24.73;20.20;;;4.20;99.90;;;;;;5067937;28;20182;-66
2022/01/22 02:24:52;;;;;;;26.80;20.90;;;4.20;99.90;;;;;;5060258;28;20666;-66
2022/01/22 02:27:18;;;;;;;23.37;20.30;;;4.20;99.90;;;;;;5071325;28;20202;-65
2022/01/22 02:29:44;;;;;;;36.47;23.60;;;4.20;99.90;;;;;;5059084;28;20186;-65
2022/01/22 02:34:59;;;;;;;31.40;22.37;;;4.20;99.90;;;;;;5061206;28;20174;-65
2022/01/22 02:37:31;;;;;;;28.00;22.73;;;4.20;99.90;;;;;;5064745;28;20273;-65
2022/01/22 02:40:03;;;;;;;35.93;23.30;;;4.20;99.90;;;;;;5052907;28;20670;-66
2022/01/22 02:42:32;;;;;;;35.43;24.97;;;4.20;99.90;;;;;;5060435;28;20734;-66
2022/01/22 02:44:58;;;;;;;29.97;22.37;;;4.30;99.90;;;;;;5072873;28;20166;-66
2022/01/22 02:47:23;;;;;;;31.97;22.37;;;4.30;99.90;;;;;;5046290;28;20199;-66
2022/01/22 02:49:49;;;;;;;35.43;22.57;;;4.30;99.90;;;;;;5071315;28;20216;-66
2022/01/22 02:52:17;;;;;;;33.93;22.77;;;4.30;99.90;;;;;;5065882;28;20205;-66
2022/01/22 02:54:43;;;;;;;30.37;23.17;;;4.30;99.90;;;;;;5054292;28;20548;-66
2022/01/22 02:57:10;;;;;;;32.50;23.67;;;4.30;99.90;;;;;;5072420;28;20201;-66
2022/01/22 02:59:36;;;;;;;29.60;23.07;;;4.40;99.90;;;;;;5067038;28;20541;-66
2022/01/22 03:02:03;;;;;;;36.30;22.77;;;4.40;99.90;;;;;;5058169;28;20692;-66
2022/01/22 03:04:29;;;;;;;25.80;19.53;;;4.30;99.90;;;;;;5072306;28;20567;-66
2022/01/22 03:06:55;;;;;;;35.70;23.67;;;4.40;99.90;;;;;;5072033;28;20209;-66
2022/01/22 03:09:27;;;;;;;36.77;22.97;;;4.30;99.90;;;;;;5052535;28;20484;-66
2022/01/22 03:22:21;;;;;;;38.20;24.60;;;4.40;99.90;;;;;;5069992;28;20176;-66
2022/01/22 03:27:32;;;;;;;39.57;26.07;;;4.50;99.90;;;;;;5057594;28;20216;-68
2022/01/22 03:29:59;;;;;;;39.57;24.67;;;4.50;99.90;;;;;;5059981;28;20236;-66
2022/01/22 03:32:28;;;;;;;37.53;24.20;;;4.40;99.90;;;;;;5071377;28;20205;-66
2022/01/22 03:34:57;;;;;;;47.63;27.10;;;4.50;99.90;;;;;;5070115;28;20579;-65
2022/01/22 03:37:24;;;;;;;34.83;23.43;;;4.40;99.90;;;;;;5051558;28;20671;-66
2022/01/22 03:39:50;;;;;;;40.53;23.13;;;4.40;99.90;;;;;;5051770;28;20166;-65
2022/01/22 03:42:15;;;;;;;32.20;24.63;;;4.50;99.90;;;;;;5046913;28;20179;-65
2022/01/22 03:44:41;;;;;;;35.00;24.73;;;4.50;99.90;;;;;;5056326;28;20709;-66
2022/01/22 03:47:07;;;;;;;34.17;23.20;;;4.50;99.90;;;;;;5071597;28;20227;-66
2022/01/22 03:49:32;;;;;;;30.33;22.13;;;4.50;99.90;;;;;;5064410;28;20193;-65
2022/01/22 03:51:58;;;;;;;34.67;21.53;;;4.50;99.90;;;;;;5070594;28;20500;-65
2022/01/22 03:54:24;;;;;;;34.70;24.23;;;4.50;99.90;;;;;;5050075;28;20167;-66
2022/01/22 03:56:51;;;;;;;40.73;23.67;;;4.60;99.90;;;;;;5056541;28;20185;-65
2022/01/22 03:59:17;;;;;;;30.10;22.20;;;4.60;99.90;;;;;;5061272;28;20170;-66
2022/01/22 04:04:33;;;;;;;29.47;20.23;;;4.60;99.90;;;;;;5058679;28;20182;-65
2022/01/22 04:07:31;;;;;;;34.17;23.17;;;4.60;99.90;;;;;;5039099;28;20205;-66
2022/01/22 04:09:48;;;;;;;32.07;23.43;;;4.60;99.90;;;;;;5071013;28;20544;-66
2022/01/22 04:12:17;;;;;;;22.00;16.97;;;4.70;99.90;;;;;;5063987;28;20226;-66
2022/01/22 04:14:52;;;;;;;35.10;22.70;;;4.70;99.90;;;;;;5067588;28;20571;-66
2022/01/22 04:24:47;;;;;;;29.77;19.90;;;4.70;99.90;;;;;;5046073;28;20275;-66
2022/01/22 04:25:39;;;;;;;26.10;20.73;;;4.70;99.90;;;;;;5067774;28;20185;-66
2022/01/22 04:28:04;;;;;;;30.27;22.63;;;4.70;99.90;;;;;;5058992;28;20206;-66
2022/01/22 04:30:30;;;;;;;40.70;25.20;;;4.70;99.90;;;;;;5064958;28;20210;-66
2022/01/22 04:32:56;;;;;;;32.33;22.77;;;4.70;99.90;;;;;;5066573;28;20683;-66
2022/01/22 04:35:24;;;;;;;35.47;24.53;;;4.70;99.90;;;;;;5058061;28;20451;-66
2022/01/22 04:37:50;;;;;;;33.53;18.87;;;4.70;99.90;;;;;;5063873;28;20194;-66
2022/01/22 04:40:16;;;;;;;30.97;22.73;;;4.70;99.90;;;;;;5059328;28;20195;-66
2022/01/22 04:42:43;;;;;;;23.67;18.87;;;4.70;99.90;;;;;;5065897;28;20209;-66
2022/01/22 04:45:23;;;;;;;24.10;19.17;;;4.70;99.90;;;;;;5060907;28;20185;-66
2022/01/22 04:55:43;;;;;;;28.70;22.13;;;4.70;99.90;;;;;;5063994;28;20228;-65
2022/01/22 04:58:10;;;;;;;33.07;22.80;;;4.70;99.90;;;;;;5063358;28;20536;-66
2022/01/22 05:00:38;;;;;;;31.43;23.73;;;4.70;99.90;;;;;;5062489;28;20171;-66
2022/01/22 05:03:04;;;;;;;26.97;20.67;;;4.70;99.90;;;;;;5047135;28;20178;-65
2022/01/22 05:05:31;;;;;;;31.93;22.70;;;4.70;99.90;;;;;;5070837;28;20174;-65
2022/01/22 05:07:57;;;;;;;33.03;25.07;;;4.70;99.90;;;;;;5040349;28;20656;-66
2022/01/22 05:10:23;;;;;;;30.83;20.53;;;4.70;99.90;;;;;;5052679;28;20681;-71
2022/01/22 05:12:50;;;;;;;37.77;27.90;;;4.70;99.90;;;;;;5064947;28;20217;-66
2022/01/22 05:15:17;;;;;;;32.57;24.27;;;4.70;99.90;;;;;;5074167;28;20170;-66
2022/01/22 05:17:44;;;;;;;38.17;24.27;;;4.80;99.90;;;;;;5034135;28;20191;-66
2022/01/22 05:20:31;;;;;;;31.90;24.20;;;4.80;99.90;;;;;;5036515;28;20171;-66
2022/01/22 05:25:36;;;;;;;37.97;26.47;;;4.80;99.90;;;;;;5037868;28;20167;-66
2022/01/22 05:38:21;;;;;;;34.27;23.40;;;4.80;99.90;;;;;;5058695;28;20224;-66
2022/01/22 05:40:47;;;;;;;30.33;22.63;;;4.80;99.90;;;;;;5057580;28;20182;-66
2022/01/22 05:43:12;;;;;;;35.53;24.23;;;4.80;99.90;;;;;;5062904;28;20209;-66
2022/01/22 05:45:38;;;;;;;37.00;25.97;;;4.90;99.90;;;;;;5053601;28;20584;-66
2022/01/22 05:48:04;;;;;;;36.47;24.00;;;4.80;99.90;;;;;;5053719;28;20225;-66
2022/01/22 05:53:05;;;;;;;45.23;23.90;;;4.80;99.90;;;;;;5066756;28;20202;-66
2022/01/22 06:00:52;;;;;;;37.63;26.40;;;4.80;99.90;;;;;;5053718;28;20178;-66
2022/01/22 06:03:18;;;;;;;34.67;23.70;;;4.80;99.90;;;;;;5057351;28;20178;-66
2022/01/22 06:05:43;;;;;;;36.23;27.00;;;4.80;99.90;;;;;;5035305;28;20189;-66
2022/01/22 06:08:10;;;;;;;35.87;23.17;;;4.80;99.90;;;;;;5067245;28;20260;-66
2022/01/22 06:10:37;;;;;;;40.27;24.93;;;4.90;99.90;;;;;;5053949;28;20616;-66
2022/01/22 06:15:37;;;;;;;33.20;23.77;;;4.90;99.90;;;;;;5073132;28;20162;-66
2022/01/22 06:18:03;;;;;;;35.90;26.93;;;4.80;99.90;;;;;;5059962;28;20205;-66
2022/01/22 06:20:29;;;;;;;40.77;27.63;;;4.90;99.90;;;;;;5060446;28;20230;-66
2022/01/22 06:22:54;;;;;;;34.07;22.77;;;4.90;99.90;;;;;;5072120;28;20176;-66
2022/01/22 06:25:20;;;;;;;36.83;25.67;;;4.90;99.90;;;;;;5058489;28;20248;-65
2022/01/22 06:27:45;;;;;;;43.00;26.70;;;4.90;99.90;;;;;;5057325;28;20202;-68
2022/01/22 06:30:11;;;;;;;41.07;26.17;;;4.90;99.90;;;;;;5073073;28;20210;-66
2022/01/22 06:32:37;;;;;;;44.00;27.83;;;4.90;99.90;;;;;;5063516;28;20616;-66
2022/01/22 06:35:04;;;;;;;36.33;24.60;;;5.00;99.90;;;;;;5064459;28;20182;-66
2022/01/22 06:37:30;;;;;;;36.10;25.73;;;4.90;99.90;;;;;;5053207;28;20199;-66
2022/01/22 06:41:44;;;;;;;33.70;23.87;;;4.90;99.90;;;;;;5052826;28;20170;-66
2022/01/22 06:42:46;;;;;;;47.07;26.63;;;5.00;99.90;;;;;;5054247;28;20174;-66
2022/01/22 06:45:12;;;;;;;40.00;24.63;;;5.00;99.90;;;;;;5072147;28;20177;-66
2022/01/22 06:47:38;;;;;;;42.00;26.03;;;5.00;99.90;;;;;;5035134;28;20199;-66
2022/01/22 06:50:04;;;;;;;39.80;26.10;;;5.00;99.90;;;;;;5065020;28;20265;-66
2022/01/22 06:52:31;;;;;;;43.73;26.50;;;5.00;99.90;;;;;;5059157;28;20198;-66
2022/01/22 06:54:56;;;;;;;34.80;25.03;;;5.00;99.90;;;;;;5057527;28;20262;-66
2022/01/22 06:57:22;;;;;;;48.67;27.43;;;5.00;99.90;;;;;;5053308;28;20270;-66
2022/01/22 06:59:49;;;;;;;37.93;26.90;;;5.00;99.90;;;;;;5052237;28;20230;-67
2022/01/22 07:02:14;;;;;;;43.43;27.17;;;5.00;99.90;;;;;;5055027;28;20170;-67
2022/01/22 07:04:40;;;;;;;39.90;26.77;;;5.00;99.90;;;;;;5072131;28;20253;-66
2022/01/22 07:07:10;;;;;;;37.30;26.17;;;5.00;99.90;;;;;;5052232;28;20786;-67
2022/01/22 07:09:36;;;;;;;39.30;28.20;;;5.00;99.90;;;;;;5052156;28;20179;-67
2022/01/22 07:12:06;;;;;;;44.37;27.77;;;5.00;99.90;;;;;;5051799;28;20214;-66
2022/01/22 07:14:31;;;;;;;47.60;29.63;;;5.00;99.90;;;;;;5052189;28;20228;-67
2022/01/22 07:16:57;;;;;;;52.20;31.70;;;5.00;99.90;;;;;;5051950;28;20190;-66
2022/01/22 07:19:23;;;;;;;50.93;29.20;;;5.10;99.90;;;;;;5070902;28;20227;-66
2022/01/22 07:22:01;;;;;;;44.50;27.13;;;5.10;99.90;;;;;;5071874;28;20247;-66
2022/01/22 07:24:30;;;;;;;42.43;27.43;;;5.10;99.90;;;;;;5052143;28;20174;-66
2022/01/22 07:26:56;;;;;;;45.27;28.33;;;5.10;99.90;;;;;;5051801;28;20201;-66
2022/01/22 07:29:22;;;;;;;41.33;26.67;;;5.10;99.90;;;;;;5069366;28;20173;-66
2022/01/22 07:31:48;;;;;;;39.67;27.30;;;5.10;99.90;;;;;;5071481;28;20237;-66
2022/01/22 07:34:14;;;;;;;37.47;24.50;;;5.10;99.90;;;;;;5054689;28;20167;-66
2022/01/22 07:36:40;;;;;;;39.93;26.47;;;5.10;99.90;;;;;;5051412;28;20620;-66
2022/01/22 07:39:06;;;;;;;38.50;26.50;;;5.10;99.90;;;;;;5066092;28;20174;-66
2022/01/22 07:41:32;;;;;;;46.03;27.27;;;5.00;99.90;;;;;;5071625;28;20182;-66
2022/01/22 07:43:57;;;;;;;49.27;28.33;;;5.00;99.90;;;;;;5056732;28;20253;-66
2022/01/22 07:46:23;;;;;;;43.73;27.97;;;5.00;99.90;;;;;;5060744;28;20201;-66
2022/01/22 07:48:49;;;;;;;43.83;27.17;;;5.00;99.90;;;;;;5071535;28;20178;-67
2022/01/22 07:51:16;;;;;;;43.17;27.63;;;4.90;99.90;;;;;;5063207;28;20167;-65
2022/01/22 07:53:44;;;;;;;39.60;25.77;;;5.00;99.90;;;;;;5039464;28;20229;-66
2022/01/22 07:56:13;;;;;;;44.00;28.17;;;5.00;99.90;;;;;;5071521;28;20273;-66
2022/01/22 07:58:39;;;;;;;42.40;28.37;;;5.00;99.90;;;;;;5065396;28;20632;-65
2022/01/22 08:01:05;;;;;;;49.00;29.53;;;5.00;99.90;;;;;;5033364;28;20201;-65
2022/01/22 08:03:31;;;;;;;43.77;27.13;;;5.10;99.90;;;;;;5066089;28;20655;-66
2022/01/22 08:05:56;;;;;;;44.03;27.60;;;5.10;99.90;;;;;;5071037;28;20206;-66
2022/01/22 08:08:22;;;;;;;39.90;25.67;;;5.20;99.90;;;;;;5057037;28;20183;-66
2022/01/22 08:10:48;;;;;;;43.80;25.60;;;5.10;99.90;;;;;;5051386;28;20171;-67
2022/01/22 08:13:14;;;;;;;45.03;26.80;;;5.10;99.90;;;;;;5062513;28;20208;-65
2022/01/22 08:15:39;;;;;;;43.53;25.53;;;5.10;99.90;;;;;;5052987;28;20174;-64
2022/01/22 08:18:07;;;;;;;47.10;26.60;;;5.00;99.90;;;;;;5060600;28;20182;-66
2022/01/22 08:20:34;;;;;;;31.20;21.67;;;5.10;99.90;;;;;;5050979;28;20212;-66
2022/01/22 08:22:59;;;;;;;32.57;22.97;;;5.10;99.90;;;;;;5058967;28;20189;-66
2022/01/22 08:25:27;;;;;;;48.83;26.63;;;5.10;99.90;;;;;;5070869;28;20170;-66
2022/01/22 08:30:34;;;;;;;38.87;25.13;;;5.10;99.90;;;;;;5050939;28;20198;-66
2022/01/22 08:35:53;;;;;;;43.23;26.70;;;5.20;99.90;;;;;;5066499;28;20171;-66
2022/01/22 08:38:26;;;;;;;49.77;24.93;;;5.20;99.90;;;;;;5051040;28;20580;-66
2022/01/22 08:40:52;;;;;;;41.53;29.03;;;5.20;99.90;;;;;;5051982;28;20179;-66
2022/01/22 08:43:18;;;;;;;46.40;29.23;;;5.20;99.90;;;;;;5050514;28;20641;-66
2022/01/22 08:45:44;;;;;;;47.50;27.47;;;5.30;99.90;;;;;;5059079;28;20272;-66
2022/01/22 08:48:10;;;;;;;46.13;26.40;;;5.30;99.90;;;;;;5074826;28;20635;-66
2022/01/22 08:50:36;;;;;;;46.43;25.90;;;5.30;99.90;;;;;;5051671;28;20183;-66
2022/01/22 08:53:02;;;;;;;44.13;26.00;;;5.40;99.90;;;;;;5054620;28;20261;-66
2022/01/22 08:55:28;;;;;;;40.33;23.87;;;5.40;99.90;;;;;;5056727;28;20682;-66
2022/01/22 08:57:54;;;;;;;44.60;28.00;;;5.50;99.90;;;;;;5056356;28;20190;-65
2022/01/22 09:00:24;;;;;;;38.33;24.07;;;5.50;99.90;;;;;;5073924;28;20741;-65
2022/01/22 09:02:50;;;;;;;39.73;25.07;;;5.50;99.90;;;;;;5056065;28;20551;-65
2022/01/22 09:05:17;;;;;;;41.03;25.30;;;5.50;99.90;;;;;;5074603;28;20170;-67
2022/01/22 09:07:44;;;;;;;38.10;25.30;;;5.60;99.90;;;;;;5054471;28;20612;-66
2022/01/22 09:10:10;;;;;;;46.47;26.47;;;5.60;99.90;;;;;;5071457;28;20216;-65
2022/01/22 09:12:36;;;;;;;44.03;27.33;;;5.70;99.90;;;;;;5073836;28;20206;-66
2022/01/22 09:15:02;;;;;;;44.63;25.37;;;5.80;99.90;;;;;;5058812;28;20179;-66
2022/01/22 09:17:28;;;;;;;42.73;25.00;;;5.80;99.90;;;;;;5054102;28;20218;-66
2022/01/22 09:19:57;;;;;;;43.60;26.13;;;5.90;99.90;;;;;;5067706;28;20178;-65
2022/01/22 09:22:24;;;;;;;41.13;26.37;;;5.90;99.90;;;;;;5065097;28;20185;-66
2022/01/22 09:24:50;;;;;;;40.37;26.90;;;6.00;99.90;;;;;;5074436;28;20197;-66
2022/01/22 09:27:17;;;;;;;48.00;28.27;;;6.10;99.90;;;;;;5064521;28;20195;-66
2022/01/22 09:29:43;;;;;;;42.30;28.10;;;6.20;99.90;;;;;;5054253;28;20551;-66
2022/01/22 09:32:09;;;;;;;44.60;26.63;;;6.20;99.90;;;;;;5061025;28;20248;-66
2022/01/22 09:34:34;;;;;;;40.57;24.27;;;6.20;99.90;;;;;;5073911;28;20534;-66
2022/01/22 09:37:00;;;;;;;44.07;26.50;;;6.20;99.90;;;;;;5049546;28;20187;-66
2022/01/22 09:39:25;;;;;;;44.43;26.53;;;6.10;99.90;;;;;;5035934;28;20228;-67
2022/01/22 09:41:51;;;;;;;46.63;27.87;;;6.20;99.90;;;;;;5057976;28;20235;-66
2022/01/22 09:44:17;;;;;;;52.73;29.07;;;6.20;99.90;;;;;;5073464;28;20216;-66
2022/01/22 09:46:46;;;;;;;42.57;25.23;;;6.20;99.90;;;;;;5059029;28;20222;-66
2022/01/22 09:49:12;;;;;;;49.63;27.33;;;6.20;99.90;;;;;;5053790;28;20182;-66
2022/01/22 09:51:39;;;;;;;45.63;27.70;;;6.20;99.90;;;;;;5052340;28;20205;-66
2022/01/22 09:54:06;;;;;;;41.93;26.97;;;6.30;99.90;;;;;;5053510;28;20178;-66
2022/01/22 09:56:32;;;;;;;46.20;27.17;;;6.30;99.90;;;;;;5052309;28;20197;-66
2022/01/22 09:58:59;;;;;;;49.77;28.67;;;6.30;99.90;;;;;;5067425;28;20174;-66
2022/01/22 10:01:26;;;;;;;47.83;27.73;;;6.30;99.90;;;;;;5073368;28;20166;-66
2022/01/22 10:03:56;;;;;;;39.77;26.60;;;6.30;99.90;;;;;;5060404;28;20558;-66
2022/01/22 10:06:27;;;;;;;40.00;25.03;;;6.20;99.90;;;;;;5053810;28;20217;-66
2022/01/22 10:09:13;;;;;;;47.63;26.07;;;6.20;99.90;;;;;;5047389;28;20554;-67
2022/01/22 10:11:39;;;;;;;42.13;25.87;;;6.10;99.90;;;;;;5073164;28;20170;-66
2022/01/22 10:14:05;;;;;;;36.33;24.60;;;6.10;99.90;;;;;;5059774;28;20221;-66
2022/01/22 10:16:41;;;;;;;45.20;28.53;;;6.00;99.90;;;;;;5053082;28;20195;-66
2022/01/22 10:19:22;;;;;;;45.00;26.47;;;6.00;99.90;;;;;;5054664;28;20206;-65
2022/01/22 10:21:55;;;;;;;43.40;27.03;;;6.00;99.90;;;;;;5046692;28;20178;-66
2022/01/22 10:24:40;;;;;;;43.93;27.43;;;6.00;99.90;;;;;;5073223;28;20170;-65
2022/01/22 10:27:27;;;;;;;42.23;26.63;;;6.10;99.90;;;;;;5059661;28;20191;-64
2022/01/22 10:30:08;;;;;;;43.33;28.37;;;6.10;99.90;;;;;;5054958;28;20187;-65
2022/01/22 10:35:15;;;;;;;44.63;27.87;;;6.20;99.90;;;;;;5054118;28;20174;-65
2022/01/22 10:37:42;;;;;;;43.60;25.43;;;6.20;99.90;;;;;;5052812;28;20515;-66
2022/01/22 10:40:22;;;;;;;41.47;25.03;;;6.20;99.90;;;;;;5053707;28;20240;-64
2022/01/22 10:42:49;;;;;;;33.87;23.87;;;6.20;99.90;;;;;;5052576;28;20198;-65
2022/01/22 10:45:26;;;;;;;41.10;26.47;;;6.30;99.90;;;;;;5071524;28;20178;-66
2022/01/22 10:48:13;;;;;;;42.70;24.80;;;6.40;99.90;;;;;;5073050;28;20209;-65
2022/01/22 10:50:38;;;;;;;39.33;23.93;;;6.40;99.90;;;;;;5072583;28;20260;-65
2022/01/22 10:53:04;;;;;;;40.60;24.43;;;6.40;99.90;;;;;;5072219;28;20256;-66
2022/01/22 10:55:30;;;;;;;39.77;25.10;;;6.40;99.90;;;;;;5052642;28;20186;-66
2022/01/22 10:58:09;;;;;;;32.03;22.30;;;6.50;99.90;;;;;;5058533;28;20676;-66
2022/01/22 11:00:35;;;;;;;40.60;25.63;;;6.50;99.90;;;;;;5034606;28;20208;-66
2022/01/22 11:03:21;;;;;;;42.03;26.60;;;6.40;99.90;;;;;;5065168;28;20657;-66
2022/01/22 11:05:47;;;;;;;32.83;22.73;;;6.50;99.90;;;;;;5072104;28;20703;-66
2022/01/22 11:08:14;;;;;;;40.17;23.17;;;6.60;99.90;;;;;;5057434;28;20265;-66
2022/01/22 11:10:41;;;;;;;33.10;22.93;;;6.70;99.90;;;;;;5052044;28;20260;-66
2022/01/22 11:13:07;;;;;;;38.03;23.97;;;6.90;99.90;;;;;;5031903;28;20282;-66
2022/01/22 11:15:34;;;;;;;35.03;22.60;;;7.10;99.90;;;;;;5032104;28;20263;-66
2022/01/22 11:18:01;;;;;;;32.53;20.60;;;7.20;99.90;;;;;;5051946;28;20666;-64
2022/01/22 11:20:29;;;;;;;27.93;20.07;;;7.20;99.90;;;;;;5071759;28;20639;-66
2022/01/22 11:22:56;;;;;;;29.43;20.43;;;7.20;99.90;;;;;;5054254;28;20256;-67
2022/01/22 11:25:24;;;;;;;27.23;20.43;;;7.40;99.90;;;;;;5041035;28;20264;-65
2022/01/22 11:27:51;;;;;;;28.93;19.50;;;7.80;99.90;;;;;;5071931;28;20594;-65
2022/01/22 11:30:17;;;;;;;26.27;19.77;;;7.90;99.90;;;;;;5070129;28;20178;-66
2022/01/22 11:32:49;;;;;;;20.40;17.27;;;7.90;99.90;;;;;;5071752;28;20251;-67
2022/01/22 11:35:36;;;;;;;22.50;17.67;;;7.80;99.90;;;;;;5066624;28;20175;-67
2022/01/22 11:38:15;;;;;;;22.33;19.40;;;7.70;99.90;;;;;;5051703;28;20248;-66
2022/01/22 11:40:41;;;;;;;26.23;19.07;;;7.60;99.90;;;;;;5052623;28;20181;-66
2022/01/22 11:43:12;;;;;;;22.73;18.60;;;7.30;99.90;;;;;;5051466;28;20171;-66
2022/01/22 11:45:46;;;;;;;24.03;16.50;;;7.00;99.90;;;;;;5058003;28;20182;-66
2022/01/22 11:48:24;;;;;;;31.23;21.30;;;6.80;99.90;;;;;;5071519;28;20260;-66
2022/01/22 11:50:55;;;;;;;26.03;21.40;;;6.80;99.90;;;;;;5069921;28;20166;-66
2022/01/22 11:53:34;;;;;;;28.33;19.93;;;6.80;99.90;;;;;;5071096;28;20210;-66
2022/01/22 11:56:17;;;;;;;27.97;20.20;;;6.70;99.90;;;;;;5061561;28;20193;-67
2022/01/22 11:59:01;;;;;;;21.97;18.33;;;6.60;99.90;;;;;;5051348;28;20175;-67
2022/01/22 12:01:51;;;;;;;24.13;18.90;;;6.60;99.90;;;;;;5053025;28;20181;-67
2022/01/22 12:04:20;;;;;;;25.37;19.57;;;6.50;99.90;;;;;;5071121;28;20258;-66
2022/01/22 12:07:13;;;;;;;33.47;23.17;;;6.50;99.90;;;;;;5057592;28;20217;-66
2022/01/22 12:15:16;;;;;;;33.63;21.50;;;6.60;99.90;;;;;;5071628;28;20189;-66
2022/01/22 12:17:54;;;;;;;29.43;21.80;;;6.70;99.90;;;;;;5033496;28;20244;-66
2022/01/22 12:23:14;;;;;;;28.17;18.97;;;6.80;99.90;;;;;;5071033;28;20186;-66
2022/01/22 12:25:40;;;;;;;30.37;20.03;;;6.80;99.90;;;;;;5053235;28;20170;-66
2022/01/22 12:28:11;;;;;;;27.77;19.53;;;6.80;99.90;;;;;;5050964;28;20182;-66
2022/01/22 12:30:47;;;;;;;30.80;21.80;;;6.80;99.90;;;;;;5052033;28;20265;-66
2022/01/22 12:33:33;;;;;;;25.20;19.70;;;6.80;99.90;;;;;;5059286;28;20229;-66
2022/01/22 12:36:01;;;;;;;28.70;21.47;;;6.90;99.90;;;;;;5060420;28;20210;-66
2022/01/22 12:41:30;;;;;;;24.63;20.17;;;7.10;99.90;;;;;;5051321;28;20221;-66
2022/01/22 12:44:11;;;;;;;26.73;19.93;;;7.10;99.90;;;;;;5063865;28;20181;-67
2022/01/22 12:46:37;;;;;;;25.90;18.10;;;7.20;99.90;;;;;;5070660;28;20202;-66
2022/01/22 12:49:05;;;;;;;32.07;21.80;;;7.30;99.90;;;;;;5056791;28;20175;-66
2022/01/22 12:51:32;;;;;;;29.70;19.87;;;7.20;99.90;;;;;;5054789;28;20229;-66
2022/01/22 12:53:58;;;;;;;32.43;19.57;;;7.30;99.90;;;;;;5070624;28;20179;-66
2022/01/22 12:59:05;;;;;;;36.63;23.07;;;7.10;99.90;;;;;;5050997;28;20265;-66
2022/01/22 13:01:33;;;;;;;30.10;21.77;;;7.10;99.90;;;;;;5053671;28;20282;-66
2022/01/22 13:04:01;;;;;;;27.57;21.93;;;7.10;99.90;;;;;;5070785;28;20171;-66
2022/01/22 13:06:49;;;;;;;32.57;23.43;;;7.00;99.90;;;;;;5050258;28;20683;-66
2022/01/22 13:09:16;;;;;;;29.17;21.20;;;7.00;99.90;;;;;;5050904;28;20593;-66
2022/01/22 13:11:46;;;;;;;33.40;23.80;;;7.00;99.90;;;;;;5054207;28;20648;-66
2022/01/22 13:14:17;;;;;;;34.30;22.40;;;7.00;99.90;;;;;;5070447;28;20257;-66
2022/01/22 13:16:52;;;;;;;28.10;21.10;;;6.90;99.90;;;;;;5068861;28;20194;-66
2022/01/22 13:19:19;;;;;;;29.03;22.17;;;6.90;99.90;;;;;;5070638;28;20174;-66
2022/01/22 13:21:58;;;;;;;28.47;22.57;;;6.80;99.90;;;;;;5067481;28;21497;-65
2022/01/22 13:24:25;;;;;;;33.57;23.30;;;6.80;99.90;;;;;;5050358;28;20179;-66
2022/01/22 13:27:00;;;;;;;33.17;24.60;;;6.80;99.90;;;;;;5051661;28;20516;-67
2022/01/22 13:29:35;;;;;;;32.20;25.57;;;6.70;99.90;;;;;;5050375;28;20170;-66
2022/01/22 13:35:17;;;;;;;30.50;22.33;;;6.70;99.90;;;;;;5055244;28;20175;-66
2022/01/22 13:48:54;;;;;;;38.27;25.13;;;6.70;99.90;;;;;;5066339;28;20343;-67
2022/01/22 13:51:20;;;;;;;32.53;22.87;;;6.60;99.90;;;;;;5035870;28;20595;-65
2022/01/22 13:53:46;;;;;;;42.37;25.63;;;6.60;99.90;;;;;;5053377;28;20545;-65
2022/01/22 13:56:13;;;;;;;37.37;24.77;;;6.60;99.90;;;;;;5069992;28;20255;-66
2022/01/22 13:58:39;;;;;;;37.10;25.83;;;6.50;99.90;;;;;;5073817;28;20639;-65
2022/01/22 14:02:15;;;;;;;39.23;27.13;;;6.50;99.90;;;;;;5058276;28;20175;-66
2022/01/22 14:04:13;;;;;;;41.00;27.80;;;6.50;99.90;;;;;;5038887;28;20616;-66
2022/01/22 14:06:42;;;;;;;42.90;27.50;;;6.50;99.90;;;;;;5054165;28;20217;-65
2022/01/22 14:09:20;;;;;;;43.10;26.47;;;6.40;99.90;;;;;;5058153;28;20175;-65
2022/01/22 14:12:05;;;;;;;41.57;26.27;;;6.50;99.90;;;;;;5054223;28;20520;-66
2022/01/22 14:14:58;;;;;;;49.17;29.93;;;6.40;99.90;;;;;;5070623;28;20651;-66
2022/01/22 14:17:27;;;;;;;38.50;25.07;;;6.40;99.90;;;;;;5048759;28;20227;-66
2022/01/22 14:20:05;;;;;;;45.57;27.17;;;6.40;99.90;;;;;;5033322;28;20223;-66
2022/01/22 14:23:10;;;;;;;38.97;25.87;;;6.40;99.90;;;;;;5035784;28;20205;-66
2022/01/22 14:25:54;;;;;;;41.47;27.50;;;6.40;99.90;;;;;;5052617;28;20195;-66
2022/01/22 14:28:20;;;;;;;41.37;26.87;;;6.40;99.90;;;;;;5060494;28;20519;-66
2022/01/22 14:30:48;;;;;;;46.50;28.67;;;6.40;99.90;;;;;;5072965;28;20658;-66
2022/01/22 14:33:17;;;;;;;38.63;28.63;;;6.40;99.90;;;;;;5052962;28;20210;-66
2022/01/22 14:35:56;;;;;;;45.03;28.33;;;6.40;99.90;;;;;;5072759;28;20174;-67
2022/01/22 14:38:40;;;;;;;39.83;26.57;;;6.40;99.90;;;;;;5037388;28;20542;-66
2022/01/22 14:46:53;;;;;;;40.47;27.63;;;6.30;99.90;;;;;;5071573;28;20209;-66
2022/01/22 14:49:29;;;;;;;49.00;27.20;;;6.30;99.90;;;;;;5052948;28;20648;-64
2022/01/22 14:51:57;;;;;;;50.53;29.50;;;6.30;99.90;;;;;;5063906;28;20205;-65
2022/01/22 14:54:23;;;;;;;47.90;28.43;;;6.30;99.90;;;;;;5033136;28;20210;-65
2022/01/22 14:56:49;;;;;;;45.33;28.87;;;6.30;99.90;;;;;;5036102;28;20222;-65